Time;durP1;ratioP1;P1;durP2;ratioP2;P2;SDS_P1;SDS_P2;PMS_P1;PMS_P2;Temp;Humidity;BMP_temperature;BMP_pressure;BME280_temperature;BME280_humidity;BME280_pressure;Samples;Min_cycle;Max_cycle;Signal;HPM_P1;HPM_P2
2020/12/16 00:01:38;;;;;;;32.70;21.68;;;;;;;1.71;95.16;100834.50;1715884;83;21136;-70
2020/12/16 00:04:06;;;;;;;36.05;25.52;;;;;;;1.70;94.93;100838.14;1696374;83;21168;-69
2020/12/16 00:06:34;;;;;;;30.52;21.42;;;;;;;1.67;94.85;100843.29;1715528;83;21573;-70
2020/12/16 00:09:02;;;;;;;28.80;20.75;;;;;;;1.68;94.87;100844.09;1721519;83;22289;-71
2020/12/16 00:11:30;;;;;;;25.32;18.73;;;;;;;1.71;94.99;100849.92;1711575;83;21584;-66
2020/12/16 00:13:57;;;;;;;28.92;21.77;;;;;;;1.74;95.07;100846.09;1704081;83;21093;-68
2020/12/16 00:16:25;;;;;;;27.77;20.60;;;;;;;1.75;95.01;100847.27;1680949;85;21593;-68
2020/12/16 00:18:52;;;;;;;29.85;21.70;;;;;;;1.74;94.94;100845.59;1711197;83;21229;-72
2020/12/16 00:21:22;;;;;;;29.57;21.25;;;;;;;1.74;94.83;100849.58;1715381;83;21179;-66
2020/12/16 00:23:50;;;;;;;26.75;18.92;;;;;;;1.75;94.83;100843.78;1693729;83;21574;-69
2020/12/16 00:26:17;;;;;;;25.23;17.90;;;;;;;1.78;94.87;100845.27;1717048;83;21665;-69
2020/12/16 00:28:45;;;;;;;25.25;17.48;;;;;;;1.80;94.84;100851.24;1719549;83;21625;-69
2020/12/16 00:31:14;;;;;;;28.95;19.50;;;;;;;1.77;94.76;100848.44;1703889;83;22225;-71
2020/12/16 00:33:42;;;;;;;33.02;21.85;;;;;;;1.79;94.74;100846.92;1701895;83;21618;-69
2020/12/16 00:36:09;;;;;;;38.28;24.47;;;;;;;1.79;94.63;100843.78;1722159;83;21136;-69
2020/12/16 00:38:37;;;;;;;34.27;23.20;;;;;;;1.78;94.51;100842.12;1721926;83;21597;-69
2020/12/16 00:41:05;;;;;;;32.85;21.15;;;;;;;1.80;94.45;100844.61;1718202;83;21621;-69
2020/12/16 00:43:33;;;;;;;41.73;28.77;;;;;;;1.83;94.50;100846.92;1712164;83;21379;-68
2020/12/16 00:46:01;;;;;;;39.08;22.35;;;;;;;1.82;94.53;100848.78;1725475;83;21215;-69
2020/12/16 00:48:29;;;;;;;40.85;23.52;;;;;;;1.88;94.61;100848.09;1725306;83;21921;-69
2020/12/16 00:50:57;;;;;;;49.65;26.87;;;;;;;1.87;94.54;100841.13;1730161;82;21074;-70
2020/12/16 00:53:25;;;;;;;49.45;28.73;;;;;;;1.88;94.48;100841.45;1730917;82;21601;-68
2020/12/16 00:55:53;;;;;;;46.00;29.82;;;;;;;1.87;94.40;100838.47;1731003;82;21218;-67
2020/12/16 00:58:22;;;;;;;33.48;20.23;;;;;;;1.85;94.35;100839.15;1704850;82;21000;-68
2020/12/16 01:00:52;;;;;;;37.20;23.62;;;;;;;1.85;94.38;100835.17;1701397;83;21028;-69
2020/12/16 01:03:22;;;;;;;42.15;24.55;;;;;;;1.78;94.13;100828.85;1725122;83;21116;-69
2020/12/16 01:05:49;;;;;;;50.85;27.48;;;;;;;1.74;94.26;100827.53;1725494;83;21127;-68
2020/12/16 01:08:18;;;;;;;58.98;30.95;;;;;;;1.71;94.35;100825.22;1711875;83;21198;-69
2020/12/16 01:10:47;;;;;;;56.63;28.52;;;;;;;1.72;94.51;100823.73;1672158;85;21702;-69
2020/12/16 01:13:15;;;;;;;61.28;32.00;;;;;;;1.74;94.64;100821.73;1682144;85;21129;-70
2020/12/16 01:15:43;;;;;;;52.13;26.10;;;;;;;1.75;94.68;100819.42;1696662;84;21126;-71
2020/12/16 01:18:11;;;;;;;45.58;26.60;;;;;;;1.79;94.77;100825.70;1697713;83;21174;-69
2020/12/16 01:20:41;;;;;;;45.28;25.97;;;;;;;1.81;94.88;100820.59;1681683;85;21220;-69
2020/12/16 01:23:19;;;;;;;46.13;26.10;;;;;;;1.87;94.92;100821.75;1846267;76;22802;-68
2020/12/16 01:25:48;;;;;;;53.80;27.73;;;;;;;1.82;94.92;100818.27;1817204;78;20959;-70
2020/12/16 01:28:16;;;;;;;41.95;26.87;;;;;;;1.83;94.91;100817.75;1784790;79;21527;-67
2020/12/16 01:30:46;;;;;;;47.35;27.82;;;;;;;1.80;94.91;100817.59;1816507;79;21771;-71
2020/12/16 01:33:14;;;;;;;51.48;25.17;;;;;;;1.78;94.90;100816.92;1791010;79;21006;-68
2020/12/16 01:35:43;;;;;;;47.58;26.82;;;;;;;1.79;95.04;100817.26;1761682;79;20923;-69
2020/12/16 01:38:11;;;;;;;50.55;30.02;;;;;;;1.79;95.04;100815.09;1798083;79;21582;-69
2020/12/16 01:40:41;;;;;;;40.78;24.45;;;;;;;1.76;94.96;100809.64;1794003;79;21127;-68
2020/12/16 01:43:08;;;;;;;57.25;32.73;;;;;;;1.77;94.96;100809.16;1816547;79;20975;-69
2020/12/16 01:45:36;;;;;;;51.88;28.07;;;;;;;1.81;95.22;100812.63;1808806;78;20959;-72
2020/12/16 01:48:04;;;;;;;40.35;24.60;;;;;;;1.89;95.18;100803.34;1785033;80;21623;-67
2020/12/16 01:50:32;;;;;;;43.90;26.68;;;;;;;1.90;95.04;100802.84;1784961;79;21153;-67
2020/12/16 01:53:01;;;;;;;56.05;31.60;;;;;;;1.89;94.89;100801.17;1787765;79;21571;-67
2020/12/16 01:55:46;;;;;;;38.53;21.57;;;;;;;1.92;94.93;100795.03;1845798;76;22740;-68
2020/12/16 01:58:18;;;;;;;41.13;25.60;;;;;;;1.88;94.90;100796.37;1828278;77;20997;-66
2020/12/16 02:00:46;;;;;;;48.13;26.42;;;;;;;1.88;94.80;100796.86;1829737;77;21192;-67
2020/12/16 02:03:17;;;;;;;48.25;27.80;;;;;;;1.87;94.84;100789.92;1790342;78;21057;-66
2020/12/16 02:06:10;;;;;;;45.57;25.67;;;;;;;1.99;95.03;100791.23;1887921;76;22726;-70
2020/12/16 02:08:38;;;;;;;49.18;27.25;;;;;;;1.95;94.86;100785.44;1781489;80;21642;-67
2020/12/16 02:11:08;;;;;;;49.90;26.48;;;;;;;1.95;94.67;100788.58;1793882;80;21366;-68
2020/12/16 02:13:37;;;;;;;44.33;26.37;;;;;;;1.92;94.54;100786.27;1793234;80;21053;-68
2020/12/16 02:16:04;;;;;;;60.00;33.83;;;;;;;1.91;94.61;100788.59;1785243;80;20932;-68
2020/12/16 02:18:33;;;;;;;58.83;35.43;;;;;;;1.90;94.60;100789.08;1787282;80;21170;-66
2020/12/16 02:21:03;;;;;;;55.90;33.88;;;;;;;1.89;94.62;100791.41;1822023;78;21014;-67
2020/12/16 02:23:33;;;;;;;65.62;37.65;;;;;;;1.88;94.54;100791.06;1796638;78;21199;-66
2020/12/16 02:26:02;;;;;;;61.48;33.85;;;;;;;1.85;94.49;100791.41;1809901;79;21058;-66
2020/12/16 02:28:30;;;;;;;63.05;34.27;;;;;;;1.84;94.56;100789.73;1783247;78;21151;-66
2020/12/16 02:30:59;;;;;;;53.45;29.92;;;;;;;1.83;94.61;100787.25;1785220;80;21003;-67
2020/12/16 02:33:39;;;;;;;49.63;26.20;;;;;;;1.88;94.70;100788.91;1889266;76;22554;-66
2020/12/16 02:36:08;;;;;;;53.52;24.75;;;;;;;1.80;94.67;100787.59;1859485;77;21589;-67
2020/12/16 02:38:47;;;;;;;62.75;28.02;;;;;;;1.77;94.71;100787.44;1787918;78;21341;-71
2020/12/16 02:41:18;;;;;;;50.45;26.62;;;;;;;1.76;94.81;100780.47;1780750;80;22880;-70
2020/12/16 02:43:46;;;;;;;68.02;32.73;;;;;;;1.77;94.93;100783.95;1771332;80;21020;-68
2020/12/16 02:46:14;;;;;;;56.48;31.80;;;;;;;1.78;94.99;100780.28;1784502;79;21136;-70
2020/12/16 02:48:42;;;;;;;53.45;28.40;;;;;;;1.79;95.01;100780.13;1793436;80;20959;-71
2020/12/16 02:51:10;;;;;;;61.68;33.33;;;;;;;1.81;95.01;100779.97;1822389;78;21431;-70
2020/12/16 02:53:38;;;;;;;47.20;28.73;;;;;;;1.79;94.96;100776.64;1755464;80;21052;-70
2020/12/16 02:56:22;;;;;;;84.00;42.80;;;;;;;1.87;95.10;100774.01;1889249;76;22669;-71
2020/12/16 02:58:52;;;;;;;77.80;41.28;;;;;;;1.78;94.91;100777.14;1858666;77;20983;-70
2020/12/16 03:01:20;;;;;;;69.85;38.08;;;;;;;1.83;95.10;100775.31;1821639;78;21377;-69
2020/12/16 03:04:08;;;;;;;57.05;29.12;;;;;;;1.86;95.07;100775.83;1781603;80;21007;-69
2020/12/16 03:06:53;;;;;;;54.63;28.27;;;;;;;1.92;94.95;100776.47;1809803;77;22746;-71
2020/12/16 03:09:26;;;;;;;59.85;31.17;;;;;;;1.87;94.81;100782.77;1768479;80;21396;-70
2020/12/16 03:11:55;;;;;;;61.65;31.62;;;;;;;1.84;94.74;100780.46;1750456;82;21195;-70
2020/12/16 03:14:25;;;;;;;64.72;31.25;;;;;;;1.87;94.77;100784.62;1752237;80;20995;-69
2020/12/16 03:16:54;;;;;;;65.57;31.75;;;;;;;1.90;94.76;100785.59;1750490;80;20980;-69
2020/12/16 03:19:24;;;;;;;49.10;25.08;;;;;;;1.93;94.72;100786.58;1773014;80;21070;-69
2020/12/16 03:21:53;;;;;;;58.00;30.27;;;;;;;1.94;94.55;100777.63;1750440;81;20975;-69
2020/12/16 03:24:23;;;;;;;51.58;26.77;;;;;;;1.91;94.36;100779.30;1748839;82;21204;-68
2020/12/16 03:27:18;;;;;;;64.03;34.00;;;;;;;1.93;94.29;100771.98;1888455;76;22749;-71
2020/12/16 03:29:48;;;;;;;46.70;27.62;;;;;;;1.86;94.21;100773.17;1848581;77;21014;-68
2020/12/16 03:32:31;;;;;;;62.43;34.03;;;;;;;1.91;94.22;100768.20;1847275;76;22600;-69
2020/12/16 03:35:02;;;;;;;55.38;31.87;;;;;;;1.87;94.27;100769.50;1814769;79;20917;-71
2020/12/16 03:37:31;;;;;;;58.63;34.40;;;;;;;1.90;94.32;100767.03;1817282;79;21180;-68
2020/12/16 03:39:59;;;;;;;49.98;27.30;;;;;;;1.93;94.28;100779.95;1787106;79;21023;-70
2020/12/16 03:42:28;;;;;;;40.52;25.37;;;;;;;1.92;94.17;100773.01;1784227;79;21003;-70
2020/12/16 03:44:56;;;;;;;44.65;27.95;;;;;;;1.91;94.03;100772.18;1784900;80;21672;-69
2020/12/16 03:47:24;;;;;;;38.17;22.73;;;;;;;1.92;93.99;100773.01;1796055;79;21027;-70
2020/12/16 03:49:52;;;;;;;46.65;22.00;;;;;;;1.94;94.02;100779.79;1816299;79;21361;-70
2020/12/16 03:52:20;;;;;;;32.78;20.52;;;;;;;1.96;93.92;100781.80;1817158;79;20967;-69
2020/12/16 03:55:04;;;;;;;42.83;21.47;;;;;;;2.02;93.76;100777.61;1889360;76;22669;-69
2020/12/16 03:57:33;;;;;;;37.75;22.35;;;;;;;1.96;93.51;100780.96;1848128;77;21611;-70
2020/12/16 04:00:20;;;;;;;40.50;25.43;;;;;;;1.98;93.45;100782.93;1793105;77;27796;-68
2020/12/16 04:02:49;;;;;;;33.92;21.68;;;;;;;1.92;93.19;100780.44;1753170;80;20971;-69
2020/12/16 04:05:45;;;;;;;35.43;21.83;;;;;;;1.92;93.01;100783.63;1846559;76;22730;-69
2020/12/16 04:08:13;;;;;;;35.88;23.38;;;;;;;1.79;93.10;100786.76;1816510;79;21568;-67
2020/12/16 04:10:47;;;;;;;35.83;21.20;;;;;;;1.73;93.25;100792.72;1807189;79;21541;-68
2020/12/16 04:13:15;;;;;;;35.75;21.37;;;;;;;1.69;93.41;100790.07;1807440;79;21610;-68
2020/12/16 04:15:44;;;;;;;33.28;21.05;;;;;;;1.65;93.50;100788.75;1785081;80;20980;-68
2020/12/16 04:18:12;;;;;;;30.48;19.75;;;;;;;1.66;93.69;100785.94;1785073;80;21567;-68
2020/12/16 04:20:40;;;;;;;27.10;16.95;;;;;;;1.68;93.72;100795.87;1807856;79;20976;-68
2020/12/16 04:23:08;;;;;;;26.40;18.57;;;;;;;1.67;93.74;100796.88;1810252;79;23525;-68
2020/12/16 04:25:36;;;;;;;29.10;18.17;;;;;;;1.66;93.79;100794.39;1798038;79;20979;-68
2020/12/16 04:28:05;;;;;;;25.97;17.40;;;;;;;1.64;93.87;100796.36;1791344;79;21650;-68
2020/12/16 04:30:34;;;;;;;29.25;19.67;;;;;;;1.62;93.88;100802.34;1816232;79;21120;-67
2020/12/16 04:33:02;;;;;;;33.23;20.77;;;;;;;1.62;94.00;100803.17;1817207;78;22137;-68
2020/12/16 04:35:31;;;;;;;32.90;22.45;;;;;;;1.60;93.99;100809.13;1797931;79;21352;-69
2020/12/16 04:37:59;;;;;;;31.55;21.75;;;;;;;1.59;94.12;100809.28;1785080;79;21172;-66
2020/12/16 04:40:28;;;;;;;31.57;22.93;;;;;;;1.59;94.25;100808.79;1790680;79;21114;-69
2020/12/16 04:43:05;;;;;;;24.12;16.85;;;;;;;1.60;94.25;100802.99;1801921;78;24415;-68
2020/12/16 04:45:38;;;;;;;30.95;20.85;;;;;;;1.61;94.29;100804.16;1771953;81;21002;-68
2020/12/16 04:48:08;;;;;;;32.80;19.57;;;;;;;1.61;94.34;100801.52;1727888;81;21384;-69
2020/12/16 04:50:40;;;;;;;37.20;21.12;;;;;;;1.63;94.33;100801.36;1751643;81;21220;-67
2020/12/16 04:53:14;;;;;;;26.65;17.05;;;;;;;1.66;94.53;100804.50;1755404;81;21024;-68
2020/12/16 04:55:43;;;;;;;22.85;15.38;;;;;;;1.75;94.56;100812.79;1756567;81;21144;-70
2020/12/16 04:58:24;;;;;;;27.63;17.27;;;;;;;1.83;94.26;100813.77;1847836;76;22675;-68
2020/12/16 05:00:53;;;;;;;32.70;20.40;;;;;;;1.74;94.00;100820.90;1785795;79;20979;-68
2020/12/16 05:03:33;;;;;;;32.63;19.93;;;;;;;1.74;94.00;100817.75;1889331;76;22713;-69
2020/12/16 05:06:02;;;;;;;32.55;19.95;;;;;;;1.67;94.02;100819.42;1848368;77;21003;-69
2020/12/16 05:08:30;;;;;;;37.50;24.95;;;;;;;1.67;94.10;100822.56;1801865;78;21370;-70
2020/12/16 05:10:59;;;;;;;38.67;23.55;;;;;;;1.62;94.13;100820.41;1821369;78;21008;-70
2020/12/16 05:13:27;;;;;;;36.95;20.85;;;;;;;1.63;94.27;100820.72;1822381;78;21608;-69
2020/12/16 05:15:54;;;;;;;36.15;23.55;;;;;;;1.64;94.31;100828.18;1822401;78;21556;-71
2020/12/16 05:18:25;;;;;;;31.27;21.25;;;;;;;1.65;94.25;100818.75;1809578;78;20967;-69
2020/12/16 05:20:58;;;;;;;37.00;23.22;;;;;;;1.65;94.24;100821.89;1806331;79;21429;-70
2020/12/16 05:23:35;;;;;;;33.33;20.82;;;;;;;1.64;94.32;100819.73;1806383;79;20987;-69
2020/12/16 05:26:07;;;;;;;33.00;20.08;;;;;;;1.68;94.30;100818.41;1808501;78;21052;-68
2020/12/16 05:28:42;;;;;;;35.38;22.00;;;;;;;1.68;94.03;100813.10;1817360;78;21255;-69
2020/12/16 05:31:11;;;;;;;31.75;22.40;;;;;;;1.65;93.71;100814.77;1821988;78;21170;-69
2020/12/16 05:33:43;;;;;;;31.68;19.87;;;;;;;1.61;93.47;100821.89;1822462;78;21191;-68
2020/12/16 05:36:11;;;;;;;33.38;23.32;;;;;;;1.55;93.57;100810.61;1822209;78;21103;-68
2020/12/16 05:38:52;;;;;;;33.35;23.12;;;;;;;1.53;93.49;100814.77;1790343;80;21002;-69
2020/12/16 05:41:32;;;;;;;31.12;19.55;;;;;;;1.50;93.52;100812.92;1790225;80;21115;-68
2020/12/16 05:44:20;;;;;;;34.85;20.20;;;;;;;1.52;93.63;100816.25;1809277;79;21650;-68
2020/12/16 05:46:51;;;;;;;36.60;20.60;;;;;;;1.52;93.67;100814.44;1817252;79;22327;-67
2020/12/16 05:49:27;;;;;;;37.53;23.07;;;;;;;1.49;93.60;100817.39;1817176;79;21121;-68
2020/12/16 05:52:02;;;;;;;33.63;22.52;;;;;;;1.50;93.65;100817.73;1802657;79;21205;-68
2020/12/16 05:54:32;;;;;;;36.48;23.70;;;;;;;1.53;93.47;100816.59;1781448;80;21118;-71
2020/12/16 05:57:19;;;;;;;33.25;18.95;;;;;;;1.54;93.36;100818.22;1794007;80;21149;-68
2020/12/16 06:00:14;;;;;;;33.33;19.85;;;;;;;1.60;93.26;100811.78;1774673;80;21579;-68
2020/12/16 06:02:45;;;;;;;29.00;19.67;;;;;;;1.63;93.03;100807.46;1753947;81;21623;-66
2020/12/16 06:05:16;;;;;;;24.95;15.45;;;;;;;1.67;92.80;100819.42;1752804;81;21094;-68
2020/12/16 06:07:48;;;;;;;28.07;17.07;;;;;;;1.68;92.49;100809.62;1752848;81;20992;-68
2020/12/16 06:10:15;;;;;;;26.00;16.80;;;;;;;1.65;91.76;100814.77;1752826;81;21126;-69
2020/12/16 06:12:44;;;;;;;26.95;16.90;;;;;;;1.59;91.26;100814.59;1761928;80;21394;-69
2020/12/16 06:15:16;;;;;;;20.70;14.40;;;;;;;1.56;91.31;100815.76;1774764;80;21563;-68
2020/12/16 06:17:48;;;;;;;21.87;14.63;;;;;;;1.56;91.11;100817.58;1761029;81;21567;-68
2020/12/16 06:20:17;;;;;;;21.95;15.13;;;;;;;1.60;90.87;100820.23;1755875;80;21665;-69
2020/12/16 06:22:47;;;;;;;21.52;14.40;;;;;;;1.67;91.03;100813.29;1769963;80;21174;-68
2020/12/16 06:25:17;;;;;;;20.10;14.33;;;;;;;1.71;90.03;100821.24;1755199;81;21225;-70
2020/12/16 06:27:50;;;;;;;25.95;15.93;;;;;;;1.68;89.74;100825.03;1752638;81;21146;-69
2020/12/16 06:30:35;;;;;;;24.27;16.95;;;;;;;1.63;89.33;100820.72;1760448;81;21161;-67
2020/12/16 06:33:15;;;;;;;20.82;15.25;;;;;;;1.64;89.47;100830.34;1761972;81;21213;-67
2020/12/16 06:35:44;;;;;;;22.32;15.32;;;;;;;1.66;89.00;100822.23;1762080;81;21113;-70
2020/12/16 06:38:21;;;;;;;18.50;12.82;;;;;;;1.61;88.32;100816.09;1758210;81;21370;-67
2020/12/16 06:40:53;;;;;;;21.37;14.63;;;;;;;1.60;87.84;100821.06;1758607;80;21185;-69
2020/12/16 06:43:41;;;;;;;21.30;14.93;;;;;;;1.58;87.40;100830.98;1788973;80;21137;-68
2020/12/16 06:46:34;;;;;;;24.25;15.35;;;;;;;1.62;87.33;100833.67;1761075;81;21208;-68
2020/12/16 06:49:04;;;;;;;20.10;14.85;;;;;;;1.70;87.03;100840.79;1761669;81;21653;-68
2020/12/16 06:51:42;;;;;;;32.80;15.95;;;;;;;1.71;86.27;100845.94;1761391;81;21390;-68
2020/12/16 06:54:12;;;;;;;27.45;16.27;;;;;;;1.66;86.14;100844.28;1761436;81;21123;-69
2020/12/16 06:56:44;;;;;;;20.88;14.00;;;;;;;1.64;86.10;100851.55;1756728;81;21099;-69
2020/12/16 06:59:53;;;;;;;28.25;20.10;;;;;;;1.68;86.15;100851.55;1751723;81;21154;-68
2020/12/16 07:02:32;;;;;;;20.88;14.30;;;;;;;1.63;85.70;100851.21;1782639;80;21607;-67
2020/12/16 07:05:04;;;;;;;37.60;17.52;;;;;;;1.66;85.56;100853.56;1778848;80;22346;-68
2020/12/16 07:07:48;;;;;;;39.80;21.20;;;;;;;1.68;85.36;100861.33;1770101;81;21125;-67
2020/12/16 07:10:40;;;;;;;37.48;17.73;;;;;;;1.69;85.53;100857.20;1770095;81;21022;-66
2020/12/16 07:13:28;;;;;;;44.88;22.67;;;;;;;1.74;85.64;100856.21;1769862;81;21214;-70
2020/12/16 07:16:10;;;;;;;26.80;17.48;;;;;;;1.75;85.56;100862.34;1772085;80;21177;-67
2020/12/16 07:18:45;;;;;;;34.55;18.65;;;;;;;1.76;85.39;100860.03;1771999;80;21396;-67
2020/12/16 07:21:17;;;;;;;25.35;15.83;;;;;;;1.66;85.07;100860.19;1788805;80;21116;-67
2020/12/16 07:23:59;;;;;;;30.62;18.70;;;;;;;1.63;85.36;100857.04;1761064;81;21140;-68
2020/12/16 07:26:32;;;;;;;31.57;20.75;;;;;;;1.64;85.69;100857.34;1786843;80;21022;-69
2020/12/16 07:29:26;;;;;;;37.50;20.68;;;;;;;1.63;85.89;100856.52;1760885;81;21228;-69
2020/12/16 07:32:03;;;;;;;43.45;21.80;;;;;;;1.62;86.03;100852.23;1788698;80;21368;-69
2020/12/16 07:34:35;;;;;;;32.10;23.05;;;;;;;1.60;86.14;100852.88;1756356;81;21118;-69
2020/12/16 07:37:04;;;;;;;37.45;22.48;;;;;;;1.62;86.16;100850.91;1758659;80;21164;-67
2020/12/16 07:39:32;;;;;;;31.07;21.68;;;;;;;1.60;86.21;100844.09;1761504;81;21550;-68
2020/12/16 07:42:00;;;;;;;34.92;23.42;;;;;;;1.55;86.18;100845.08;1761328;81;21188;-68
2020/12/16 07:44:29;;;;;;;28.87;19.02;;;;;;;1.51;86.40;100851.70;1761234;81;21365;-67
2020/12/16 07:47:03;;;;;;;31.50;22.40;;;;;;;1.51;86.62;100848.55;1788690;80;21760;-66
2020/12/16 07:49:32;;;;;;;32.08;21.52;;;;;;;1.50;86.51;100845.56;1764685;80;21014;-67
2020/12/16 07:52:01;;;;;;;29.07;20.90;;;;;;;1.50;86.62;100844.23;1789679;80;21077;-67
2020/12/16 07:54:30;;;;;;;38.38;21.57;;;;;;;1.51;86.77;100848.55;1761006;81;21209;-68
2020/12/16 07:57:03;;;;;;;33.92;22.48;;;;;;;1.51;86.91;100850.37;1761629;81;21572;-68
2020/12/16 07:59:35;;;;;;;33.08;20.85;;;;;;;1.51;86.76;100860.98;1770229;81;21098;-68
2020/12/16 08:02:13;;;;;;;37.33;23.12;;;;;;;1.48;86.69;100861.31;1770008;81;21186;-68
2020/12/16 08:07:20;;;;;;;33.10;21.70;;;;;;;1.53;86.60;100846.58;1882284;76;23355;-69
2020/12/16 08:10:00;;;;;;;27.45;21.42;;;;;;;1.49;86.75;100856.32;1849811;77;21071;-69
2020/12/16 08:12:32;;;;;;;35.10;21.68;;;;;;;1.49;86.73;100865.11;1820947;78;21391;-68
2020/12/16 08:15:17;;;;;;;29.30;17.77;;;;;;;1.56;86.53;100859.50;1821410;77;21156;-68
2020/12/16 08:17:47;;;;;;;27.05;19.55;;;;;;;1.62;86.20;100862.00;1820961;78;21042;-67
2020/12/16 08:20:18;;;;;;;26.40;18.82;;;;;;;1.59;85.82;100862.31;1820881;78;21026;-68
2020/12/16 08:22:47;;;;;;;32.58;19.35;;;;;;;1.58;85.70;100860.15;1821591;77;21619;-67
2020/12/16 08:25:17;;;;;;;31.27;18.15;;;;;;;1.57;85.77;100862.50;1832116;77;22339;-68
2020/12/16 08:27:48;;;;;;;33.45;20.43;;;;;;;1.63;85.73;100870.30;1788211;79;21164;-67
2020/12/16 08:30:18;;;;;;;31.50;18.65;;;;;;;1.63;85.88;100859.16;1820785;77;20997;-68
2020/12/16 08:33:07;;;;;;;44.90;20.55;;;;;;;1.64;85.90;100857.34;1821083;78;21130;-70
2020/12/16 08:35:49;;;;;;;29.35;19.25;;;;;;;1.66;85.91;100863.33;1822999;78;21547;-68
2020/12/16 08:38:30;;;;;;;29.95;20.40;;;;;;;1.69;85.94;100875.76;1848330;77;21321;-68
2020/12/16 08:40:59;;;;;;;34.73;21.80;;;;;;;1.75;85.09;100861.02;1826282;77;21126;-67
2020/12/16 08:43:40;;;;;;;27.07;17.42;;;;;;;1.70;85.05;100854.05;1808070;79;21606;-67
2020/12/16 08:46:17;;;;;;;34.35;20.85;;;;;;;1.71;85.30;100855.72;1849047;77;21103;-69
2020/12/16 08:48:56;;;;;;;35.92;19.92;;;;;;;1.65;85.38;100853.71;1806222;79;21153;-67
2020/12/16 08:51:33;;;;;;;31.17;17.30;;;;;;;1.63;85.66;100857.84;1849022;77;21623;-69
2020/12/16 08:54:17;;;;;;;23.30;18.05;;;;;;;1.63;85.93;100849.09;1820858;77;20983;-68
2020/12/16 08:56:56;;;;;;;23.20;17.90;;;;;;;1.63;86.27;100850.41;1806293;79;21189;-67
2020/12/16 08:59:30;;;;;;;23.52;14.58;;;;;;;1.64;86.44;100854.70;1845642;77;21194;-68
2020/12/16 09:02:09;;;;;;;23.22;17.25;;;;;;;1.63;86.56;100841.13;1820913;78;21193;-66
2020/12/16 09:04:39;;;;;;;24.87;17.30;;;;;;;1.61;86.72;100846.59;1836093;77;21238;-69
2020/12/16 09:07:15;;;;;;;25.75;18.70;;;;;;;1.60;86.75;100840.95;1845813;77;21124;-68
2020/12/16 09:09:51;;;;;;;40.52;23.05;;;;;;;1.60;86.46;100846.73;1827538;77;21155;-68
2020/12/16 09:12:21;;;;;;;28.35;18.15;;;;;;;1.58;86.56;100837.61;1826677;78;21539;-69
2020/12/16 09:14:54;;;;;;;28.70;19.80;;;;;;;1.60;86.27;100838.78;1826765;78;21121;-69
2020/12/16 09:17:26;;;;;;;28.25;19.95;;;;;;;1.59;86.43;100837.95;1826883;78;24970;-68
2020/12/16 09:19:54;;;;;;;38.88;24.50;;;;;;;1.56;86.46;100842.27;1827565;77;21638;-68
2020/12/16 09:22:27;;;;;;;33.70;18.92;;;;;;;1.54;86.44;100841.59;1827349;77;20971;-69
2020/12/16 09:24:58;;;;;;;37.20;22.13;;;;;;;1.51;86.30;100841.09;1826155;78;21037;-68
2020/12/16 09:27:26;;;;;;;26.55;19.27;;;;;;;1.52;86.42;100840.11;1773451;80;21132;-67
2020/12/16 09:29:54;;;;;;;29.63;20.75;;;;;;;1.59;86.39;100846.41;1787160;80;21180;-69
2020/12/16 09:32:26;;;;;;;28.02;18.70;;;;;;;1.61;86.07;100849.23;1785563;80;21145;-70
2020/12/16 09:34:54;;;;;;;19.37;16.17;;;;;;;1.61;86.13;100839.96;1752359;80;21181;-68
2020/12/16 09:37:32;;;;;;;22.77;17.60;;;;;;;1.65;86.14;100841.78;1754458;81;21679;-69
2020/12/16 09:40:11;;;;;;;19.60;15.28;;;;;;;1.67;86.07;100840.64;1771688;81;21175;-68
2020/12/16 09:42:39;;;;;;;28.70;17.75;;;;;;;1.70;85.92;100836.81;1771714;81;21327;-68
2020/12/16 09:45:10;;;;;;;20.68;14.80;;;;;;;1.74;85.87;100833.67;1771249;78;21158;-71
2020/12/16 09:47:45;;;;;;;19.55;13.30;;;;;;;1.75;85.75;100828.70;1754333;81;21125;-69
2020/12/16 09:50:13;;;;;;;21.05;14.87;;;;;;;1.77;85.91;100823.73;1754295;81;21153;-69
2020/12/16 09:52:41;;;;;;;24.05;14.30;;;;;;;1.80;85.88;100819.41;1766886;80;21138;-68
2020/12/16 09:55:17;;;;;;;19.50;15.23;;;;;;;1.78;85.90;100821.39;1763327;80;22768;-69
2020/12/16 09:57:48;;;;;;;17.52;13.35;;;;;;;1.76;85.90;100822.91;1754341;81;21029;-69
2020/12/16 10:00:16;;;;;;;21.25;15.13;;;;;;;1.78;85.84;100818.73;1785965;78;21204;-67
2020/12/16 10:02:43;;;;;;;24.67;14.33;;;;;;;1.73;85.85;100812.61;1793333;78;21110;-69
2020/12/16 10:05:11;;;;;;;19.62;14.78;;;;;;;1.69;86.04;100810.79;1789436;78;21160;-67
2020/12/16 10:07:38;;;;;;;21.05;13.55;;;;;;;1.66;86.08;100809.80;1784361;79;21474;-70
2020/12/16 10:10:06;;;;;;;25.10;14.43;;;;;;;1.62;86.38;100808.48;1837037;78;21185;-69
2020/12/16 10:12:34;;;;;;;18.73;13.83;;;;;;;1.61;86.47;100807.31;1837012;78;21136;-69
2020/12/16 10:15:01;;;;;;;24.12;14.63;;;;;;;1.62;86.55;100809.81;1846155;77;21129;-68
2020/12/16 10:17:30;;;;;;;22.75;16.12;;;;;;;1.63;86.69;100806.66;1853717;77;21149;-68
2020/12/16 10:20:01;;;;;;;21.57;15.65;;;;;;;1.68;86.83;100808.30;1853718;77;21317;-68
2020/12/16 10:22:30;;;;;;;19.73;13.50;;;;;;;1.72;86.69;100805.17;1835298;77;21058;-68
2020/12/16 10:24:57;;;;;;;15.70;13.48;;;;;;;1.69;86.40;100798.86;1820181;78;21098;-69
2020/12/16 10:27:28;;;;;;;22.00;16.35;;;;;;;1.68;86.61;100801.17;1820273;77;21033;-69
2020/12/16 10:29:56;;;;;;;19.15;14.20;;;;;;;1.67;86.66;100789.42;1820165;78;21192;-68
2020/12/16 10:32:25;;;;;;;19.48;14.33;;;;;;;1.74;86.71;100786.42;1820167;78;21323;-66
2020/12/16 10:34:54;;;;;;;15.85;13.08;;;;;;;1.73;86.46;100782.11;1820166;78;21583;-68
2020/12/16 10:37:25;;;;;;;19.73;14.47;;;;;;;1.67;86.49;100780.14;1820196;78;21113;-68
2020/12/16 10:39:52;;;;;;;18.70;14.20;;;;;;;1.63;86.80;100777.50;1820807;77;21156;-67
2020/12/16 10:42:22;;;;;;;29.23;14.55;;;;;;;1.66;86.89;100785.94;1820176;78;21196;-68
2020/12/16 10:44:50;;;;;;;23.27;14.63;;;;;;;1.68;86.76;100786.58;1838308;77;21192;-68
2020/12/16 10:47:18;;;;;;;17.32;14.83;;;;;;;1.67;86.67;100788.09;1822811;77;21109;-68
2020/12/16 10:49:45;;;;;;;19.48;13.72;;;;;;;1.67;86.65;100782.30;1820168;78;21149;-67
2020/12/16 10:52:14;;;;;;;16.77;13.78;;;;;;;1.65;86.82;100782.95;1820008;78;21007;-71
2020/12/16 10:54:42;;;;;;;21.60;15.83;;;;;;;1.66;86.85;100785.94;1820831;77;21651;-68
2020/12/16 10:57:12;;;;;;;20.52;14.58;;;;;;;1.64;86.93;100784.43;1820109;78;21656;-68
2020/12/16 10:59:39;;;;;;;20.95;15.70;;;;;;;1.60;87.12;100781.78;1822431;77;21533;-69
2020/12/16 11:02:09;;;;;;;17.23;14.47;;;;;;;1.60;87.31;100787.08;1819810;78;21050;-68
2020/12/16 11:04:37;;;;;;;25.62;17.80;;;;;;;1.64;87.37;100781.28;1789145;78;21548;-70
2020/12/16 11:07:07;;;;;;;19.67;14.95;;;;;;;1.66;87.27;100771.84;1820853;78;21133;-67
2020/12/16 11:09:35;;;;;;;16.95;13.25;;;;;;;1.67;87.29;100777.00;1822216;77;21363;-68
2020/12/16 11:12:03;;;;;;;18.80;16.07;;;;;;;1.68;87.21;100774.65;1838562;77;21192;-68
2020/12/16 11:14:31;;;;;;;17.92;15.43;;;;;;;1.72;87.33;100770.70;1823395;77;20983;-67
2020/12/16 11:16:59;;;;;;;17.37;13.70;;;;;;;1.78;87.18;100770.51;1823587;77;22275;-69
2020/12/16 11:19:27;;;;;;;27.13;20.50;;;;;;;1.77;87.12;100770.20;1839323;77;21133;-67
2020/12/16 11:21:55;;;;;;;18.17;15.20;;;;;;;1.78;87.22;100767.85;1829235;77;21840;-70
2020/12/16 11:24:23;;;;;;;18.57;13.10;;;;;;;1.77;87.09;100767.55;1820651;77;21126;-70
2020/12/16 11:26:52;;;;;;;18.37;14.47;;;;;;;1.75;87.27;100766.37;1820195;78;21188;-68
2020/12/16 11:29:23;;;;;;;13.90;11.85;;;;;;;1.73;87.27;100759.08;1751537;82;21096;-68
2020/12/16 11:31:57;;;;;;;16.32;13.85;;;;;;;1.79;87.39;100756.26;1821860;78;21381;-66
2020/12/16 11:34:26;;;;;;;17.87;13.72;;;;;;;1.83;87.45;100758.91;1820545;78;21197;-70
2020/12/16 11:37:00;;;;;;;18.75;14.60;;;;;;;1.85;87.37;100754.77;1826961;77;21153;-67
2020/12/16 11:39:28;;;;;;;14.15;11.65;;;;;;;1.82;87.28;100755.11;1853680;77;20950;-67
2020/12/16 11:41:57;;;;;;;17.42;13.45;;;;;;;1.85;87.24;100744.98;1853606;77;21109;-68